Time;durP1;ratioP1;P1;durP2;ratioP2;P2;SDS_P1;SDS_P2;PMS_P1;PMS_P2;Temp;Humidity;BMP_temperature;BMP_pressure;BME280_temperature;BME280_humidity;BME280_pressure;Samples;Min_cycle;Max_cycle;Signal;HPM_P1;HPM_P2
2023/03/20 00:02:25;;;;;;;11.20;10.50;;;11.30;99.90;;;;;;10357462;28;20212;-81
2023/03/20 00:07:28;;;;;;;12.27;11.47;;;11.30;99.90;;;;;;10339964;28;20242;-82
2023/03/20 00:12:30;;;;;;;13.07;12.17;;;11.30;99.90;;;;;;10375971;28;20285;-82
2023/03/20 00:17:33;;;;;;;11.67;10.80;;;11.20;99.90;;;;;;10376123;28;20203;-83
2023/03/20 00:22:35;;;;;;;11.40;10.50;;;11.20;99.90;;;;;;10321944;28;20299;-82
2023/03/20 00:27:37;;;;;;;10.90;10.20;;;11.20;99.90;;;;;;10378311;28;20257;-83
2023/03/20 00:32:41;;;;;;;9.37;8.87;;;11.20;99.90;;;;;;10337383;28;20249;-84
2023/03/20 00:37:43;;;;;;;9.67;9.07;;;11.20;99.90;;;;;;10331810;28;20195;-82
2023/03/20 00:42:50;;;;;;;9.57;8.83;;;11.20;99.90;;;;;;10364974;28;20386;-82
2023/03/20 00:47:53;;;;;;;8.50;8.00;;;11.20;99.90;;;;;;10373806;28;20209;-81
2023/03/20 00:52:58;;;;;;;8.23;7.83;;;11.20;99.90;;;;;;10320902;28;20233;-83
2023/03/20 00:58:03;;;;;;;6.80;6.40;;;11.20;99.90;;;;;;10344606;28;20547;-81
2023/03/20 01:03:13;;;;;;;7.50;7.00;;;11.20;99.90;;;;;;10373748;28;20219;-82
2023/03/20 01:08:17;;;;;;;7.10;6.70;;;11.20;99.90;;;;;;10336762;28;20208;-80
2023/03/20 01:13:22;;;;;;;7.50;7.07;;;11.20;99.90;;;;;;10374246;28;20649;-81
2023/03/20 01:18:27;;;;;;;6.60;6.30;;;11.20;99.90;;;;;;10361037;28;20587;-82
2023/03/20 01:23:29;;;;;;;6.40;5.90;;;11.20;99.90;;;;;;10350744;28;20228;-83
2023/03/20 01:28:32;;;;;;;6.23;5.77;;;11.20;99.90;;;;;;10322665;28;20208;-82
2023/03/20 01:33:36;;;;;;;5.67;5.27;;;11.10;99.90;;;;;;10356111;28;20226;-81
2023/03/20 01:38:39;;;;;;;5.90;5.60;;;11.00;99.90;;;;;;10352720;28;20195;-82
2023/03/20 01:43:41;;;;;;;6.17;5.77;;;10.90;99.90;;;;;;10340597;28;20219;-82
2023/03/20 01:49:07;;;;;;;5.90;5.50;;;10.90;99.90;;;;;;10325864;28;20214;-82
2023/03/20 01:54:18;;;;;;;5.70;5.40;;;10.90;99.90;;;;;;10385587;28;20757;-82
2023/03/20 01:59:36;;;;;;;6.40;5.80;;;10.90;99.90;;;;;;10356106;28;20265;-81
2023/03/20 02:04:45;;;;;;;5.00;4.70;;;10.80;99.90;;;;;;10338927;28;20215;-82
2023/03/20 02:09:50;;;;;;;5.87;5.57;;;10.90;99.90;;;;;;10382579;28;20274;-81
2023/03/20 02:15:00;;;;;;;5.80;5.50;;;11.00;99.90;;;;;;10345995;28;20238;-82
2023/03/20 02:20:36;;;;;;;5.50;5.10;;;11.10;99.90;;;;;;10375546;28;20194;-82
2023/03/20 02:26:10;;;;;;;5.40;5.10;;;11.10;99.90;;;;;;10378562;28;20208;-82
2023/03/20 02:31:36;;;;;;;5.10;4.80;;;11.20;99.90;;;;;;10348107;28;20223;-80
2023/03/20 02:37:18;;;;;;;4.40;4.20;;;11.20;99.90;;;;;;10386111;28;20199;-81
2023/03/20 02:42:29;;;;;;;4.03;3.83;;;11.10;99.90;;;;;;10365683;28;20223;-81
2023/03/20 02:47:41;;;;;;;3.57;3.37;;;10.90;99.90;;;;;;10360084;28;20202;-81
2023/03/20 02:53:05;;;;;;;3.50;3.30;;;10.90;99.90;;;;;;10449378;22;20237;-79
2023/03/20 02:58:14;;;;;;;3.27;3.17;;;11.00;99.90;;;;;;10548781;28;20196;-81
2023/03/20 03:03:22;;;;;;;3.57;3.23;;;11.10;99.90;;;;;;10522190;28;20411;-79
2023/03/20 03:08:31;;;;;;;3.50;3.30;;;11.10;99.90;;;;;;10484512;28;20209;-78
2023/03/20 03:13:38;;;;;;;3.60;3.40;;;11.20;99.90;;;;;;10491102;28;20225;-79
2023/03/20 03:18:42;;;;;;;3.10;3.00;;;11.20;99.90;;;;;;10483098;28;20200;-81
2023/03/20 03:23:47;;;;;;;3.07;2.97;;;11.20;99.90;;;;;;10493380;28;20228;-80
2023/03/20 03:28:54;;;;;;;2.90;2.80;;;11.20;99.90;;;;;;10465940;28;20198;-80
2023/03/20 03:33:58;;;;;;;2.97;2.87;;;11.30;99.90;;;;;;10475329;28;20677;-80
2023/03/20 03:39:07;;;;;;;3.73;3.53;;;11.30;99.90;;;;;;10465814;28;20289;-80
2023/03/20 03:44:17;;;;;;;3.27;3.10;;;11.30;99.90;;;;;;10470907;28;20251;-80
2023/03/20 03:49:23;;;;;;;3.10;3.00;;;11.30;99.90;;;;;;10494041;28;20227;-80
2023/03/20 03:54:31;;;;;;;2.67;2.57;;;11.30;99.90;;;;;;10482966;28;20229;-79
2023/03/20 03:59:57;;;;;;;2.60;2.50;;;11.20;99.90;;;;;;10499269;28;20227;-80
2023/03/20 04:05:01;;;;;;;2.30;2.20;;;11.20;99.90;;;;;;10468082;28;20212;-80
2023/03/20 04:10:04;;;;;;;1.83;1.73;;;11.20;99.90;;;;;;10503358;28;20220;-77
2023/03/20 04:15:09;;;;;;;2.40;2.30;;;11.10;99.90;;;;;;10524953;28;20235;-78
2023/03/20 04:20:13;;;;;;;2.23;2.13;;;11.10;99.90;;;;;;10465762;28;20696;-78
2023/03/20 04:25:18;;;;;;;2.00;2.00;;;11.10;99.90;;;;;;10482589;28;20221;-79
2023/03/20 04:30:22;;;;;;;2.30;2.20;;;11.10;99.90;;;;;;10492783;28;20217;-78
2023/03/20 04:35:50;;;;;;;2.20;2.10;;;11.00;99.90;;;;;;10446984;28;20206;-77
2023/03/20 04:40:53;;;;;;;2.17;2.07;;;11.00;99.90;;;;;;10469008;28;20224;-78
2023/03/20 04:45:57;;;;;;;2.10;2.00;;;11.00;99.90;;;;;;10488962;28;20216;-79
2023/03/20 04:50:59;;;;;;;2.10;2.10;;;10.90;99.90;;;;;;10474609;28;20216;-78
2023/03/20 04:56:13;;;;;;;2.00;1.90;;;10.90;99.90;;;;;;10444504;28;20206;-77
2023/03/20 05:01:17;;;;;;;3.90;2.07;;;10.80;99.90;;;;;;10477729;28;20238;-79
2023/03/20 05:06:20;;;;;;;1.93;1.83;;;10.80;99.90;;;;;;10480625;28;20712;-79
2023/03/20 05:11:24;;;;;;;2.10;2.00;;;10.80;99.90;;;;;;10474811;28;20227;-77
2023/03/20 05:16:30;;;;;;;2.60;2.50;;;10.70;99.90;;;;;;10465661;28;20555;-77
2023/03/20 05:21:46;;;;;;;1.80;1.60;;;10.70;99.90;;;;;;10469511;28;20522;-78
2023/03/20 05:26:48;;;;;;;6.93;2.33;;;10.70;99.90;;;;;;10460105;28;20200;-78
2023/03/20 05:32:11;;;;;;;2.53;2.33;;;10.70;99.90;;;;;;10467363;28;20357;-78
2023/03/20 05:37:36;;;;;;;2.30;2.20;;;10.70;99.90;;;;;;10449330;28;20207;-80
2023/03/20 05:42:45;;;;;;;2.00;1.90;;;10.70;99.90;;;;;;10469740;28;20221;-79
2023/03/20 05:48:13;;;;;;;3.20;3.00;;;10.70;99.90;;;;;;10483132;28;20228;-79
2023/03/20 05:53:42;;;;;;;3.07;2.87;;;10.60;99.90;;;;;;10509877;28;20761;-79
2023/03/20 05:59:04;;;;;;;2.20;2.10;;;10.60;99.90;;;;;;10502995;28;20193;-80
2023/03/20 06:04:31;;;;;;;2.17;2.07;;;10.70;99.90;;;;;;10469307;28;20325;-79
2023/03/20 06:09:51;;;;;;;2.60;2.50;;;10.70;99.90;;;;;;10476958;28;20230;-80
2023/03/20 06:14:54;;;;;;;5.00;2.27;;;10.70;99.90;;;;;;10487683;28;20212;-81
2023/03/20 06:19:58;;;;;;;2.60;2.50;;;10.80;99.90;;;;;;10498504;28;20195;-80
2023/03/20 06:25:01;;;;;;;2.60;2.50;;;10.80;99.90;;;;;;10488429;28;20613;-80
2023/03/20 06:30:10;;;;;;;3.10;2.80;;;10.90;99.90;;;;;;10483208;28;20260;-79
2023/03/20 06:35:14;;;;;;;2.80;2.60;;;10.90;99.90;;;;;;10452063;28;20212;-80
2023/03/20 06:40:21;;;;;;;3.00;2.80;;;11.00;99.90;;;;;;10502795;28;20194;-81
2023/03/20 06:45:23;;;;;;;2.60;2.40;;;11.10;99.90;;;;;;10481246;28;20280;-82
2023/03/20 06:50:51;;;;;;;2.93;2.73;;;11.20;99.90;;;;;;10470954;28;20701;-78
2023/03/20 06:55:54;;;;;;;1.80;1.70;;;11.40;99.90;;;;;;10456299;28;20197;-78
2023/03/20 07:00:56;;;;;;;3.20;3.07;;;11.50;99.90;;;;;;10487014;28;20607;-78
2023/03/20 07:06:00;;;;;;;2.60;2.50;;;11.60;99.90;;;;;;10475565;28;20271;-80
2023/03/20 07:11:03;;;;;;;5.50;5.00;;;11.80;99.90;;;;;;10472673;28;20217;-79
2023/03/20 07:16:08;;;;;;;2.63;2.33;;;12.00;99.90;;;;;;10487723;28;20200;-79
2023/03/20 07:21:21;;;;;;;2.80;2.47;;;12.30;99.90;;;;;;10453407;28;20305;-81
2023/03/20 07:26:23;;;;;;;3.53;2.93;;;12.50;99.90;;;;;;10488239;28;20231;-79
2023/03/20 07:31:27;;;;;;;2.80;2.60;;;12.60;99.90;;;;;;10460525;28;20350;-79
2023/03/20 07:36:49;;;;;;;2.60;2.40;;;12.70;99.90;;;;;;10481766;28;20528;-83
2023/03/20 07:41:55;;;;;;;2.50;2.40;;;12.60;99.90;;;;;;10470181;28;20263;-78
2023/03/20 07:47:13;;;;;;;2.80;2.60;;;12.50;99.90;;;;;;10475104;28;20543;-80
2023/03/20 07:52:16;;;;;;;2.00;1.90;;;12.50;99.90;;;;;;10499114;28;20718;-79
2023/03/20 07:57:19;;;;;;;2.30;2.10;;;12.60;99.90;;;;;;10484422;28;20194;-79
2023/03/20 08:02:21;;;;;;;2.77;2.53;;;12.60;99.90;;;;;;10475517;28;20205;-79
2023/03/20 08:07:24;;;;;;;2.57;2.43;;;12.70;99.90;;;;;;10483814;28;20234;-78
2023/03/20 08:12:27;;;;;;;2.77;2.67;;;12.90;99.90;;;;;;10479584;28;20728;-80
2023/03/20 08:17:29;;;;;;;2.93;2.83;;;13.10;99.90;;;;;;10473520;28;20193;-81
2023/03/20 08:22:32;;;;;;;2.00;1.90;;;13.40;99.90;;;;;;10485370;28;20213;-81
2023/03/20 08:27:34;;;;;;;2.60;2.40;;;13.50;99.90;;;;;;10473238;28;20207;-80
2023/03/20 08:32:37;;;;;;;2.87;2.67;;;13.40;99.90;;;;;;10467729;28;20214;-79
2023/03/20 08:37:40;;;;;;;2.70;2.60;;;13.30;99.90;;;;;;10469187;28;20202;-80
2023/03/20 08:42:43;;;;;;;2.43;2.23;;;13.30;99.90;;;;;;10469381;28;20732;-79
2023/03/20 08:47:48;;;;;;;2.80;2.60;;;13.40;99.90;;;;;;10494698;28;20258;-79
2023/03/20 08:52:51;;;;;;;2.67;2.57;;;13.40;99.90;;;;;;10491305;28;20233;-80
2023/03/20 08:57:56;;;;;;;2.53;2.43;;;13.40;99.90;;;;;;10474200;28;20718;-82
2023/03/20 09:02:58;;;;;;;2.30;2.10;;;13.40;99.90;;;;;;10487664;28;20235;-80
2023/03/20 09:08:01;;;;;;;2.73;2.40;;;13.50;99.90;;;;;;10507853;28;20280;-82
2023/03/20 09:13:04;;;;;;;1.87;1.77;;;13.60;99.90;;;;;;10497526;28;20240;-82
2023/03/20 09:18:06;;;;;;;5.40;2.13;;;13.70;99.90;;;;;;10494759;28;20202;-82
2023/03/20 09:23:10;;;;;;;2.20;2.10;;;13.80;99.90;;;;;;10481458;28;20433;-81
2023/03/20 09:28:12;;;;;;;2.20;2.10;;;14.10;99.90;;;;;;10494122;28;20196;-82
2023/03/20 09:33:14;;;;;;;2.10;1.87;;;14.30;99.90;;;;;;10490985;28;20229;-81
2023/03/20 09:38:18;;;;;;;2.27;2.17;;;14.50;99.90;;;;;;10477362;28;20204;-82
2023/03/20 09:43:37;;;;;;;1.93;1.83;;;14.60;99.90;;;;;;10501967;28;20216;-81
2023/03/20 09:48:46;;;;;;;2.03;1.93;;;14.70;99.90;;;;;;10497160;28;20284;-80
2023/03/20 09:53:54;;;;;;;2.67;2.47;;;14.70;99.90;;;;;;10469324;28;20225;-82
2023/03/20 09:58:59;;;;;;;2.30;2.03;;;14.80;99.90;;;;;;10474466;28;20206;-80
2023/03/20 10:04:04;;;;;;;2.50;2.30;;;14.90;99.90;;;;;;10478435;28;20471;-82
2023/03/20 10:09:17;;;;;;;2.83;2.53;;;15.00;99.90;;;;;;10510057;28;20243;-81
2023/03/20 10:14:31;;;;;;;2.97;2.77;;;15.10;99.90;;;;;;10485701;28;20717;-82
2023/03/20 10:19:42;;;;;;;4.57;4.17;;;15.20;99.90;;;;;;10491335;28;20197;-81
2023/03/20 10:24:52;;;;;;;3.13;2.93;;;15.30;99.90;;;;;;10494456;28;20775;-79
2023/03/20 10:30:03;;;;;;;3.60;3.40;;;15.30;99.90;;;;;;10468654;28;20202;-81
2023/03/20 10:35:21;;;;;;;3.10;2.90;;;15.10;99.90;;;;;;10466082;28;20224;-80
2023/03/20 10:40:30;;;;;;;2.23;2.13;;;14.90;99.90;;;;;;10484763;28;20224;-81
2023/03/20 10:45:40;;;;;;;2.20;2.10;;;14.60;99.90;;;;;;10480140;28;20590;-80
2023/03/20 10:50:46;;;;;;;2.43;2.23;;;14.40;99.90;;;;;;10474449;28;20209;-80
2023/03/20 10:55:50;;;;;;;2.93;2.73;;;14.20;99.90;;;;;;10485650;28;20232;-81
2023/03/20 11:00:55;;;;;;;3.57;3.13;;;14.10;99.90;;;;;;10480384;28;20217;-81
2023/03/20 11:06:01;;;;;;;3.43;3.00;;;14.00;99.90;;;;;;10485802;28;20266;-79
2023/03/20 11:11:05;;;;;;;3.60;3.30;;;13.80;99.90;;;;;;10494347;28;20229;-79
2023/03/20 11:16:20;;;;;;;3.20;3.00;;;13.80;99.90;;;;;;10481820;28;20281;-79
2023/03/20 11:21:24;;;;;;;3.77;3.40;;;13.80;99.90;;;;;;10497092;28;20209;-80
2023/03/20 11:26:37;;;;;;;5.10;4.70;;;13.90;99.90;;;;;;10469074;28;20205;-80
2023/03/20 11:31:41;;;;;;;4.53;4.23;;;14.10;99.90;;;;;;10463103;28;20214;-80
2023/03/20 11:36:52;;;;;;;6.57;5.97;;;14.20;99.90;;;;;;10483241;28;20288;-80
2023/03/20 11:41:57;;;;;;;6.10;5.67;;;14.20;99.90;;;;;;10462723;28;20575;-79
2023/03/20 11:47:02;;;;;;;6.20;5.60;;;14.30;99.90;;;;;;10478730;28;20212;-80
2023/03/20 11:52:13;;;;;;;5.83;5.27;;;14.40;99.90;;;;;;10486623;28;20328;-80
2023/03/20 11:57:34;;;;;;;6.33;5.07;;;14.30;99.90;;;;;;10489583;28;20209;-79
2023/03/20 12:02:37;;;;;;;6.60;6.10;;;14.30;99.90;;;;;;10475315;28;20216;-80
2023/03/20 12:07:39;;;;;;;6.73;6.10;;;14.20;99.90;;;;;;10470303;28;20224;-80
2023/03/20 12:12:47;;;;;;;5.43;5.03;;;14.30;99.90;;;;;;10485586;28;20612;-80
2023/03/20 12:17:55;;;;;;;6.00;5.60;;;14.40;99.90;;;;;;10474502;28;20220;-80
2023/03/20 12:23:06;;;;;;;8.23;6.00;;;14.50;99.90;;;;;;10487434;28;20209;-80
2023/03/20 12:28:17;;;;;;;9.50;6.60;;;14.70;99.90;;;;;;10478154;28;20189;-80
2023/03/20 12:33:32;;;;;;;6.50;6.00;;;14.80;99.90;;;;;;10472057;28;20685;-80
2023/03/20 12:38:35;;;;;;;5.80;5.40;;;14.90;99.90;;;;;;10491782;28;20225;-80
2023/03/20 12:43:54;;;;;;;6.00;5.50;;;15.00;99.90;;;;;;10487653;28;20571;-80
2023/03/20 12:49:03;;;;;;;6.17;5.77;;;15.10;99.90;;;;;;10495561;28;20279;-79
2023/03/20 12:54:19;;;;;;;7.20;6.60;;;15.00;99.90;;;;;;10467949;28;20230;-80
2023/03/20 12:59:29;;;;;;;7.23;6.30;;;14.90;99.90;;;;;;10496115;28;20650;-79
2023/03/20 13:04:57;;;;;;;6.87;6.30;;;14.90;99.90;;;;;;10473251;28;20224;-79
2023/03/20 13:10:12;;;;;;;5.80;5.40;;;14.80;99.90;;;;;;10462017;28;20248;-80
2023/03/20 13:15:30;;;;;;;5.70;5.20;;;14.70;99.90;;;;;;10501261;28;20722;-80
2023/03/20 13:20:34;;;;;;;7.03;6.33;;;14.70;99.90;;;;;;10459964;28;20256;-80
2023/03/20 13:25:56;;;;;;;7.00;6.40;;;14.80;99.90;;;;;;10451175;28;20189;-80
2023/03/20 13:31:07;;;;;;;5.83;5.30;;;14.80;99.90;;;;;;10494681;28;20225;-80
2023/03/20 13:36:20;;;;;;;6.47;6.07;;;14.80;99.90;;;;;;10498746;28;20284;-80
2023/03/20 13:41:24;;;;;;;5.73;5.23;;;14.70;99.90;;;;;;10466016;28;20240;-80
2023/03/20 13:46:33;;;;;;;5.97;5.40;;;14.70;99.90;;;;;;10463698;28;20570;-77
2023/03/20 13:51:42;;;;;;;6.00;5.60;;;14.80;99.90;;;;;;10465568;28;20316;-79
2023/03/20 13:56:54;;;;;;;7.03;6.43;;;14.80;99.90;;;;;;10498745;28;20284;-80
2023/03/20 14:02:03;;;;;;;5.90;5.50;;;14.70;99.90;;;;;;10469475;28;20217;-80
2023/03/20 14:07:27;;;;;;;6.43;5.93;;;14.60;99.90;;;;;;10488691;28;20267;-80
2023/03/20 14:12:32;;;;;;;4.90;4.50;;;14.50;99.90;;;;;;10496568;28;20249;-78
2023/03/20 14:17:43;;;;;;;4.50;4.20;;;14.50;99.90;;;;;;10455145;28;20276;-80
2023/03/20 14:22:47;;;;;;;5.50;5.10;;;14.50;99.90;;;;;;10479361;28;20753;-79
2023/03/20 14:27:56;;;;;;;5.70;5.20;;;14.60;99.90;;;;;;10471648;28;20200;-78
2023/03/20 14:33:00;;;;;;;5.43;5.03;;;14.60;99.90;;;;;;10473211;28;20308;-80
2023/03/20 14:38:18;;;;;;;4.20;4.00;;;14.60;99.90;;;;;;10503521;28;20254;-81
2023/03/20 14:43:36;;;;;;;5.10;4.60;;;14.50;99.90;;;;;;10463318;28;20209;-80
2023/03/20 14:48:45;;;;;;;5.67;5.17;;;14.50;99.90;;;;;;10441951;28;20196;-78
2023/03/20 14:53:53;;;;;;;5.73;5.33;;;14.50;99.90;;;;;;10475329;28;20249;-79
2023/03/20 14:58:59;;;;;;;5.07;4.70;;;14.40;99.90;;;;;;10470700;28;20233;-79
2023/03/20 15:04:08;;;;;;;5.10;4.80;;;14.40;99.90;;;;;;10465576;28;20248;-79
2023/03/20 15:09:11;;;;;;;5.20;4.70;;;14.40;99.90;;;;;;10460555;28;20670;-79
2023/03/20 15:14:20;;;;;;;5.57;5.07;;;14.40;99.90;;;;;;10492017;28;20225;-79
2023/03/20 15:19:24;;;;;;;6.00;5.40;;;14.40;99.90;;;;;;10479496;28;20202;-79
2023/03/20 15:24:30;;;;;;;5.10;4.70;;;14.30;99.90;;;;;;10501793;28;20714;-79
2023/03/20 15:29:34;;;;;;;3.90;3.60;;;14.40;99.90;;;;;;10491374;28;20252;-79
2023/03/20 15:34:40;;;;;;;4.47;4.10;;;14.30;99.90;;;;;;10480661;28;20252;-80
2023/03/20 15:39:44;;;;;;;3.90;3.60;;;14.40;99.90;;;;;;10489585;28;20190;-79
2023/03/20 15:44:48;;;;;;;4.47;4.17;;;14.40;99.90;;;;;;10463882;28;20205;-80
2023/03/20 15:49:53;;;;;;;4.20;3.90;;;14.40;99.90;;;;;;10487528;28;20285;-79
2023/03/20 15:54:57;;;;;;;3.80;3.50;;;14.40;99.90;;;;;;10475882;28;20217;-81
2023/03/20 15:59:59;;;;;;;3.60;3.23;;;14.40;99.90;;;;;;10488551;28;20194;-80
2023/03/20 16:05:04;;;;;;;3.50;3.20;;;14.40;99.90;;;;;;10457967;28;20214;-80
2023/03/20 16:10:18;;;;;;;3.43;3.20;;;14.30;99.90;;;;;;10488345;28;20189;-82
2023/03/20 16:15:22;;;;;;;2.60;2.50;;;14.30;99.90;;;;;;10502847;28;20258;-80
2023/03/20 16:20:27;;;;;;;2.43;2.33;;;14.30;99.90;;;;;;10493033;28;20201;-82
2023/03/20 16:25:29;;;;;;;2.60;2.50;;;14.30;99.90;;;;;;10470320;28;20484;-81
2023/03/20 16:30:33;;;;;;;2.50;2.40;;;14.30;99.90;;;;;;10464208;28;20197;-78
2023/03/20 16:35:43;;;;;;;2.30;2.20;;;14.30;99.90;;;;;;10490759;28;20213;-79
2023/03/20 16:40:45;;;;;;;2.70;2.60;;;14.30;99.90;;;;;;10496263;28;20198;-81
2023/03/20 16:45:52;;;;;;;2.27;2.07;;;14.20;99.40;;;;;;10494386;28;20252;-82
2023/03/20 16:51:01;;;;;;;3.10;2.90;;;14.30;98.00;;;;;;10489225;28;20194;-80
2023/03/20 16:56:04;;;;;;;3.67;3.37;;;14.10;98.70;;;;;;10485730;28;20223;-82
2023/03/20 17:01:08;;;;;;;2.77;2.57;;;13.90;99.90;;;;;;10505619;28;20309;-82
2023/03/20 17:06:34;;;;;;;2.40;2.30;;;13.80;99.70;;;;;;10503792;28;20200;-82
2023/03/20 17:11:38;;;;;;;3.27;2.37;;;13.70;98.80;;;;;;10486452;28;20225;-81
2023/03/20 17:16:40;;;;;;;2.17;2.07;;;13.60;99.30;;;;;;10486033;28;20194;-82
2023/03/20 17:21:44;;;;;;;2.70;2.50;;;13.50;99.90;;;;;;10483069;28;20217;-82
2023/03/20 17:26:52;;;;;;;2.80;2.70;;;13.40;99.10;;;;;;10486977;28;20583;-81
2023/03/20 17:31:54;;;;;;;4.90;3.23;;;13.40;99.90;;;;;;10486620;28;20214;-82
2023/03/20 17:37:00;;;;;;;3.77;3.40;;;13.30;99.80;;;;;;10483754;28;20200;-82
2023/03/20 17:42:02;;;;;;;3.67;3.40;;;13.40;99.00;;;;;;10498302;28;20209;-82
2023/03/20 17:47:05;;;;;;;4.60;2.93;;;13.30;99.90;;;;;;10485033;28;20193;-82
2023/03/20 17:52:15;;;;;;;5.70;5.20;;;13.30;99.90;;;;;;10494764;28;20260;-82
2023/03/20 17:57:22;;;;;;;3.00;2.80;;;13.20;99.90;;;;;;10475436;28;20206;-82
2023/03/20 18:02:24;;;;;;;3.10;2.90;;;13.20;99.90;;;;;;10472282;28;20232;-81
2023/03/20 18:07:30;;;;;;;3.27;2.63;;;13.20;99.90;;;;;;10473973;28;20338;-79
2023/03/20 18:12:33;;;;;;;3.47;3.27;;;13.20;99.90;;;;;;10485388;28;20300;-79
2023/03/20 18:17:35;;;;;;;3.33;3.00;;;13.10;99.90;;;;;;10486572;28;20224;-80
2023/03/20 18:22:38;;;;;;;4.80;3.63;;;13.10;99.90;;;;;;10491583;28;20218;-77
2023/03/20 18:27:42;;;;;;;4.43;4.03;;;13.10;99.90;;;;;;10489342;28;20269;-78
2023/03/20 18:32:44;;;;;;;4.27;3.87;;;13.10;99.90;;;;;;10496644;28;20205;-78
2023/03/20 18:37:47;;;;;;;4.50;4.10;;;13.10;99.90;;;;;;10489150;28;20231;-78
2023/03/20 18:42:49;;;;;;;4.20;3.70;;;13.10;99.90;;;;;;10470815;28;20293;-78
2023/03/20 18:47:52;;;;;;;4.07;3.77;;;13.10;99.90;;;;;;10481951;28;20198;-79
2023/03/20 18:52:56;;;;;;;5.03;4.53;;;13.10;99.90;;;;;;10482422;28;20217;-78
2023/03/20 18:58:02;;;;;;;4.50;4.20;;;13.00;99.90;;;;;;10498574;28;20206;-78
2023/03/20 19:03:04;;;;;;;6.57;5.43;;;13.00;99.90;;;;;;10494299;28;20223;-78
2023/03/20 19:08:14;;;;;;;7.80;7.10;;;13.00;99.90;;;;;;10482638;28;20235;-78
2023/03/20 19:13:18;;;;;;;7.03;6.53;;;13.00;99.90;;;;;;10487880;28;20209;-78
2023/03/20 19:18:22;;;;;;;9.70;6.43;;;12.90;99.90;;;;;;10495439;28;20228;-79
2023/03/20 19:23:27;;;;;;;9.77;8.90;;;12.90;99.90;;;;;;10478251;28;20240;-79
2023/03/20 19:28:31;;;;;;;10.33;9.33;;;12.90;99.90;;;;;;10473107;28;20568;-79
2023/03/20 19:33:33;;;;;;;9.50;5.90;;;12.80;99.90;;;;;;10474555;28;20214;-79
2023/03/20 19:38:37;;;;;;;6.93;6.00;;;12.70;99.90;;;;;;10480418;28;20562;-79
2023/03/20 19:43:39;;;;;;;7.80;5.70;;;12.60;99.90;;;;;;10500546;28;20213;-79
2023/03/20 19:48:41;;;;;;;7.40;5.87;;;12.60;99.90;;;;;;10485272;28;20201;-79
2023/03/20 19:53:45;;;;;;;5.40;4.90;;;12.60;99.90;;;;;;10505996;28;20742;-79
2023/03/20 19:58:47;;;;;;;6.03;5.57;;;12.50;99.90;;;;;;10498246;28;20198;-79
2023/03/20 20:03:49;;;;;;;6.77;5.90;;;12.40;99.90;;;;;;10483833;28;20585;-80
2023/03/20 20:08:53;;;;;;;5.93;5.13;;;12.40;99.90;;;;;;10494775;28;20729;-80
2023/03/20 20:13:55;;;;;;;5.60;5.20;;;12.40;99.90;;;;;;10463686;28;20249;-78
2023/03/20 20:18:57;;;;;;;4.77;4.37;;;12.30;99.90;;;;;;10472629;28;20677;-78
2023/03/20 20:24:01;;;;;;;5.90;5.40;;;12.20;99.90;;;;;;10491171;28;20556;-79
2023/03/20 20:29:03;;;;;;;6.20;5.60;;;12.20;99.90;;;;;;10474453;28;20279;-79
2023/03/20 20:34:05;;;;;;;6.13;5.53;;;12.20;99.90;;;;;;10496399;28;20708;-77
2023/03/20 20:39:09;;;;;;;6.00;5.60;;;12.10;99.90;;;;;;10494418;28;20851;-78
2023/03/20 20:44:11;;;;;;;6.80;4.80;;;12.10;99.90;;;;;;10484995;28;20218;-78
2023/03/20 20:49:13;;;;;;;3.57;3.30;;;12.00;99.90;;;;;;10467823;28;20216;-77
2023/03/20 20:54:16;;;;;;;4.57;4.27;;;11.90;99.90;;;;;;10501974;28;20278;-79
2023/03/20 20:59:18;;;;;;;4.40;4.00;;;11.90;99.90;;;;;;10493057;28;20225;-80
2023/03/20 21:04:21;;;;;;;4.47;4.07;;;11.90;99.90;;;;;;10467599;28;20219;-80
2023/03/20 21:09:24;;;;;;;4.33;3.93;;;11.90;99.90;;;;;;10496118;28;20197;-80
2023/03/20 21:14:27;;;;;;;3.90;3.70;;;11.80;99.90;;;;;;10492700;28;20234;-81
2023/03/20 21:19:30;;;;;;;5.63;5.00;;;11.80;99.90;;;;;;10483997;28;20197;-81
2023/03/20 21:24:34;;;;;;;4.40;4.00;;;11.80;99.90;;;;;;10446811;28;20299;-80
2023/03/20 21:29:37;;;;;;;4.00;3.70;;;11.80;99.90;;;;;;10470756;28;20202;-76
2023/03/20 21:34:40;;;;;;;4.00;3.80;;;11.80;99.90;;;;;;10459925;28;20221;-80
2023/03/20 21:39:44;;;;;;;4.70;4.40;;;11.80;99.90;;;;;;10467305;28;20279;-78
2023/03/20 21:44:47;;;;;;;3.70;3.40;;;11.80;99.90;;;;;;10485078;28;20258;-77
2023/03/20 21:49:49;;;;;;;4.60;4.10;;;11.70;99.90;;;;;;10458792;28;20655;-82
2023/03/20 21:54:52;;;;;;;4.43;4.13;;;11.70;99.90;;;;;;10471725;28;20217;-79
2023/03/20 21:59:56;;;;;;;5.57;3.70;;;11.70;99.90;;;;;;10491760;28;20269;-79
2023/03/20 22:05:00;;;;;;;4.00;3.70;;;11.70;99.90;;;;;;10464208;28;20288;-79
2023/03/20 22:10:04;;;;;;;5.20;4.70;;;11.70;99.90;;;;;;10496572;28;20194;-79
2023/03/20 22:15:08;;;;;;;5.23;4.83;;;11.70;99.90;;;;;;10474712;28;20235;-80
2023/03/20 22:20:11;;;;;;;4.53;4.23;;;11.70;99.90;;;;;;10491923;28;20208;-79
2023/03/20 22:25:15;;;;;;;5.33;4.80;;;11.70;99.90;;;;;;10501285;28;20229;-80
2023/03/20 22:30:19;;;;;;;5.43;5.00;;;11.70;99.90;;;;;;10469999;28;20193;-80
2023/03/20 22:35:23;;;;;;;4.40;4.10;;;11.70;99.90;;;;;;10503040;28;20220;-80
2023/03/20 22:40:26;;;;;;;4.63;4.07;;;11.70;99.90;;;;;;10481905;28;20200;-80
2023/03/20 22:45:28;;;;;;;4.60;4.30;;;11.70;99.90;;;;;;10494102;28;20260;-80
2023/03/20 22:50:31;;;;;;;4.50;4.10;;;11.70;99.90;;;;;;10470062;28;20229;-80
2023/03/20 22:55:34;;;;;;;5.30;4.63;;;11.70;99.90;;;;;;10501551;28;20461;-80
2023/03/20 23:00:37;;;;;;;4.87;3.50;;;11.70;99.90;;;;;;10468335;28;20680;-78
2023/03/20 23:05:41;;;;;;;4.40;4.00;;;11.70;99.90;;;;;;10467260;28;20186;-78
2023/03/20 23:10:46;;;;;;;5.23;4.03;;;11.70;99.90;;;;;;10500462;28;20227;-77
2023/03/20 23:15:50;;;;;;;9.70;7.30;;;11.70;99.90;;;;;;10466221;28;20268;-80
2023/03/20 23:20:57;;;;;;;4.27;3.97;;;11.70;99.90;;;;;;10476724;28;20197;-78
2023/03/20 23:26:05;;;;;;;4.57;4.10;;;11.70;99.90;;;;;;10504973;28;20187;-78
2023/03/20 23:31:09;;;;;;;4.33;3.40;;;11.70;99.90;;;;;;10465869;28;20608;-78
2023/03/20 23:36:12;;;;;;;4.07;3.77;;;11.70;99.90;;;;;;10490342;28;20216;-81
2023/03/20 23:41:15;;;;;;;5.30;3.63;;;11.70;99.90;;;;;;10482942;28;20443;-78
2023/03/20 23:46:17;;;;;;;5.67;5.20;;;11.70;99.90;;;;;;10460564;28;20247;-79
2023/03/20 23:51:19;;;;;;;3.83;3.53;;;11.70;99.90;;;;;;10509830;28;20283;-81
2023/03/20 23:56:24;;;;;;;4.30;4.00;;;11.70;99.90;;;;;;10478156;28;20645;-81
